WZZ1ZG LHBP-ESSA
Flight info
| Callsign | WZZ1ZG |
|---|---|
| Flight time | N/A |
| Altitude | 36000 |
| Route | LITKU Y301 KALIF/N0443F340 DCT BABKO DCT PENOR DCT ARMOD/N0442F350 Z228 NILUG |
| Aircraft | A321/M-SDE1E2E3FGIJ1J4RWXY/LB1 |
Departure
| Time | 2026-05-05 07:53 |
|---|---|
| Airport | Budapest Liszt Ferenc International Airport (LHBP) |
Arrival
| Time | N/A |
|---|---|
| Airport | Stockholm-Arlanda Airport (ESSA) |
| Time | Latitude | Longitude | Altitude | Speed | Heading |
|---|---|---|---|---|---|
| 2026-05-05 07:13 | 47.43564 | 19.26392 | 456 ft | 0 kts | 222° |
| 2026-05-05 07:15 | 47.43565 | 19.26392 | 456 ft | 0 kts | 222° |
| 2026-05-05 07:20 | 47.43565 | 19.26393 | 457 ft | 0 kts | 222° |
| 2026-05-05 07:25 | 47.43318 | 19.26763 | 457 ft | 0 kts | 222° |
| 2026-05-05 07:25 | 47.43319 | 19.26763 | 457 ft | 0 kts | 222° |
| 2026-05-05 07:26 | 47.43319 | 19.26764 | 457 ft | 0 kts | 222° |
| 2026-05-05 07:28 | 47.43564 | 19.26392 | 459 ft | 0 kts | 222° |
| 2026-05-05 07:30 | 47.43565 | 19.26392 | 458 ft | 0 kts | 222° |
| 2026-05-05 07:32 | 47.43565 | 19.26393 | 458 ft | 0 kts | 222° |
| 2026-05-05 07:44 | 47.43565 | 19.26394 | 457 ft | 1 kts | 222° |
| 2026-05-05 07:44 | 47.43581 | 19.26415 | 457 ft | 2 kts | 222° |
| 2026-05-05 07:44 | 47.43596 | 19.26442 | 456 ft | 4 kts | 265° |
| 2026-05-05 07:44 | 47.43588 | 19.26474 | 454 ft | 4 kts | 311° |
| 2026-05-05 07:45 | 47.43581 | 19.26487 | 455 ft | 1 kts | 313° |
| 2026-05-05 07:45 | 47.43580 | 19.26488 | 455 ft | 2 kts | 313° |
| 2026-05-05 07:49 | 47.43581 | 19.26487 | 455 ft | 1 kts | 312° |
| 2026-05-05 07:49 | 47.43588 | 19.26476 | 454 ft | 4 kts | 312° |
| 2026-05-05 07:50 | 47.43622 | 19.26421 | 457 ft | 8 kts | 312° |
| 2026-05-05 07:50 | 47.43665 | 19.26360 | 457 ft | 9 kts | 334° |
| 2026-05-05 07:50 | 47.43723 | 19.26385 | 456 ft | 9 kts | 33° |
| 2026-05-05 07:50 | 47.43782 | 19.26412 | 458 ft | 9 kts | 343° |
| 2026-05-05 07:51 | 47.43832 | 19.26347 | 458 ft | 10 kts | 311° |
| 2026-05-05 07:51 | 47.43882 | 19.26267 | 458 ft | 11 kts | 313° |
| 2026-05-05 07:51 | 47.43946 | 19.26209 | 458 ft | 11 kts | 1° |
| 2026-05-05 07:51 | 47.44007 | 19.26275 | 460 ft | 12 kts | 42° |
| 2026-05-05 07:52 | 47.44062 | 19.26389 | 468 ft | 13 kts | 71° |
| 2026-05-05 07:52 | 47.44064 | 19.26516 | 470 ft | 13 kts | 108° |
| 2026-05-05 07:52 | 47.43979 | 19.26668 | 468 ft | 32 kts | 132° |
| 2026-05-05 07:52 | 47.43662 | 19.27180 | 473 ft | 101 kts | 132° |
| 2026-05-05 07:53 | 47.43048 | 19.28170 | 461 ft | 158 kts | 132° |
| 2026-05-05 07:53 | 47.42270 | 19.29430 | 922 ft | 163 kts | 133° |
| 2026-05-05 07:53 | 47.41628 | 19.30853 | 1509 ft | 169 kts | 124° |
| 2026-05-05 07:53 | 47.41056 | 19.32389 | 2092 ft | 176 kts | 123° |
| 2026-05-05 07:54 | 47.40429 | 19.34070 | 2344 ft | 198 kts | 123° |
| 2026-05-05 07:54 | 47.39733 | 19.35920 | 2534 ft | 218 kts | 124° |
| 2026-05-05 07:54 | 47.38956 | 19.37977 | 2776 ft | 240 kts | 123° |
| 2026-05-05 07:54 | 47.38309 | 19.40174 | 3286 ft | 257 kts | 102° |
| 2026-05-05 07:55 | 47.38547 | 19.42847 | 3820 ft | 276 kts | 66° |
| 2026-05-05 07:55 | 47.39698 | 19.45158 | 4558 ft | 284 kts | 47° |
| 2026-05-05 07:55 | 47.41182 | 19.47121 | 5286 ft | 288 kts | 40° |
| 2026-05-05 07:55 | 47.42758 | 19.48986 | 6009 ft | 292 kts | 39° |
| 2026-05-05 07:56 | 47.44337 | 19.50892 | 6697 ft | 295 kts | 40° |
| 2026-05-05 07:56 | 47.45884 | 19.52884 | 7438 ft | 295 kts | 43° |
| 2026-05-05 07:56 | 47.47398 | 19.54954 | 8125 ft | 298 kts | 45° |
| 2026-05-05 07:56 | 47.48895 | 19.57093 | 8832 ft | 301 kts | 46° |
| 2026-05-05 07:57 | 47.50385 | 19.59284 | 9527 ft | 304 kts | 47° |
| 2026-05-05 07:57 | 47.51884 | 19.61519 | 10180 ft | 308 kts | 47° |
| 2026-05-05 07:57 | 47.53440 | 19.63853 | 10390 ft | 329 kts | 47° |
| 2026-05-05 07:57 | 47.55298 | 19.66018 | 10510 ft | 353 kts | 28° |
| 2026-05-05 07:58 | 47.57671 | 19.67140 | 10847 ft | 365 kts | 6° |
| 2026-05-05 07:58 | 47.60208 | 19.66947 | 11411 ft | 367 kts | 345° |
| 2026-05-05 07:58 | 47.62514 | 19.65489 | 12000 ft | 365 kts | 323° |
| 2026-05-05 07:58 | 47.64383 | 19.62973 | 12600 ft | 364 kts | 310° |
| 2026-05-05 07:59 | 47.66114 | 19.60205 | 13242 ft | 367 kts | 309° |
| 2026-05-05 07:59 | 47.67849 | 19.57409 | 13867 ft | 370 kts | 309° |
| 2026-05-05 07:59 | 47.69593 | 19.54585 | 14425 ft | 373 kts | 309° |
| 2026-05-05 07:59 | 47.71349 | 19.51735 | 15004 ft | 376 kts | 310° |
| 2026-05-05 08:00 | 47.73120 | 19.48861 | 15572 ft | 378 kts | 310° |
| 2026-05-05 08:00 | 47.75065 | 19.46208 | 16104 ft | 385 kts | 325° |
| 2026-05-05 08:00 | 47.77525 | 19.44605 | 16672 ft | 392 kts | 346° |
| 2026-05-05 08:00 | 47.80252 | 19.44376 | 17219 ft | 396 kts | 7° |
| 2026-05-05 08:01 | 47.82879 | 19.45600 | 17769 ft | 399 kts | 29° |
| 2026-05-05 08:01 | 47.85101 | 19.48077 | 18294 ft | 401 kts | 43° |
| 2026-05-05 08:01 | 47.87171 | 19.50891 | 18783 ft | 404 kts | 43° |
| 2026-05-05 08:01 | 47.89245 | 19.53739 | 19253 ft | 407 kts | 43° |
| 2026-05-05 08:02 | 47.91471 | 19.56393 | 19748 ft | 409 kts | 33° |
| 2026-05-05 08:02 | 47.93992 | 19.58386 | 20202 ft | 413 kts | 21° |
| 2026-05-05 08:02 | 47.96743 | 19.59607 | 20684 ft | 414 kts | 9° |
| 2026-05-05 08:02 | 47.99574 | 19.60020 | 21183 ft | 415 kts | 359° |
| 2026-05-05 08:03 | 48.02465 | 19.59995 | 21674 ft | 417 kts | 358° |
| 2026-05-05 08:03 | 48.05371 | 19.59969 | 22165 ft | 419 kts | 357° |
| 2026-05-05 08:03 | 48.08289 | 19.59945 | 22656 ft | 420 kts | 358° |
| 2026-05-05 08:03 | 48.11222 | 19.59926 | 23082 ft | 423 kts | 358° |
| 2026-05-05 08:04 | 48.14174 | 19.59909 | 23520 ft | 425 kts | 358° |
| 2026-05-05 08:04 | 48.17136 | 19.59891 | 23913 ft | 426 kts | 358° |
| 2026-05-05 08:04 | 48.20116 | 19.59873 | 24269 ft | 428 kts | 357° |
| 2026-05-05 08:04 | 48.23107 | 19.59850 | 24592 ft | 431 kts | 358° |
| 2026-05-05 08:05 | 48.26107 | 19.59724 | 24955 ft | 432 kts | 355° |
| 2026-05-05 08:05 | 48.29114 | 19.59469 | 25306 ft | 434 kts | 354° |
| 2026-05-05 08:05 | 48.32133 | 19.59132 | 25607 ft | 437 kts | 353° |
| 2026-05-05 08:05 | 48.35173 | 19.58765 | 25945 ft | 438 kts | 353° |
| 2026-05-05 08:06 | 48.38188 | 19.58412 | 26309 ft | 440 kts | 353° |
| 2026-05-05 08:06 | 48.41254 | 19.58077 | 26643 ft | 442 kts | 354° |
| 2026-05-05 08:06 | 48.44327 | 19.57763 | 26974 ft | 444 kts | 354° |
| 2026-05-05 08:06 | 48.47413 | 19.57468 | 27335 ft | 445 kts | 355° |
| 2026-05-05 08:07 | 48.50510 | 19.57182 | 27673 ft | 447 kts | 354° |
| 2026-05-05 08:07 | 48.53476 | 19.56911 | 27947 ft | 449 kts | 354° |
| 2026-05-05 08:07 | 48.56599 | 19.56633 | 28280 ft | 450 kts | 355° |
| 2026-05-05 08:07 | 48.59733 | 19.56356 | 28598 ft | 452 kts | 353° |
| 2026-05-05 08:08 | 48.62877 | 19.56076 | 28895 ft | 453 kts | 354° |
| 2026-05-05 08:08 | 48.66031 | 19.55793 | 29197 ft | 455 kts | 356° |
| 2026-05-05 08:08 | 48.69195 | 19.55506 | 29517 ft | 456 kts | 355° |
| 2026-05-05 08:08 | 48.72373 | 19.55214 | 29814 ft | 458 kts | 353° |
| 2026-05-05 08:09 | 48.75557 | 19.54921 | 30108 ft | 459 kts | 355° |
| 2026-05-05 08:09 | 48.78748 | 19.54632 | 30374 ft | 460 kts | 355° |
| 2026-05-05 08:09 | 48.81947 | 19.54345 | 30698 ft | 460 kts | 354° |
| 2026-05-05 08:09 | 48.85143 | 19.54059 | 30993 ft | 460 kts | 353° |
| 2026-05-05 08:10 | 48.88336 | 19.53765 | 31318 ft | 459 kts | 353° |
| 2026-05-05 08:10 | 48.91521 | 19.53464 | 31653 ft | 459 kts | 356° |
| 2026-05-05 08:10 | 48.94704 | 19.53165 | 31973 ft | 459 kts | 352° |
| 2026-05-05 08:10 | 48.97889 | 19.52868 | 32303 ft | 458 kts | 351° |
| 2026-05-05 08:11 | 49.01024 | 19.52576 | 32631 ft | 457 kts | 353° |
| 2026-05-05 08:11 | 49.04193 | 19.52283 | 32936 ft | 456 kts | 352° |
| 2026-05-05 08:11 | 49.07363 | 19.51989 | 33245 ft | 456 kts | 352° |
| 2026-05-05 08:11 | 49.10530 | 19.51697 | 33562 ft | 455 kts | 354° |
| 2026-05-05 08:12 | 49.13693 | 19.51407 | 33864 ft | 455 kts | 354° |
| 2026-05-05 08:12 | 49.16855 | 19.51117 | 34116 ft | 455 kts | 355° |
| 2026-05-05 08:12 | 49.20017 | 19.50826 | 34397 ft | 454 kts | 352° |
| 2026-05-05 08:12 | 49.23162 | 19.50531 | 34698 ft | 452 kts | 354° |
| 2026-05-05 08:13 | 49.26292 | 19.50234 | 35026 ft | 450 kts | 354° |
| 2026-05-05 08:13 | 49.29416 | 19.49941 | 35336 ft | 449 kts | 354° |
| 2026-05-05 08:13 | 49.32500 | 19.49652 | 35602 ft | 448 kts | 354° |
| 2026-05-05 08:13 | 49.35607 | 19.49360 | 35841 ft | 448 kts | 353° |
| 2026-05-05 08:14 | 49.38722 | 19.49067 | 35947 ft | 450 kts | 352° |
| 2026-05-05 08:14 | 49.41852 | 19.48771 | 35963 ft | 450 kts | 354° |
| 2026-05-05 08:14 | 49.48099 | 19.48178 | 35954 ft | 450 kts | 354° |
| 2026-05-05 08:15 | 49.54355 | 19.47587 | 35947 ft | 450 kts | 354° |
| 2026-05-05 08:15 | 49.60607 | 19.46959 | 35940 ft | 449 kts | 349° |
| 2026-05-05 08:16 | 49.66702 | 19.45125 | 35948 ft | 446 kts | 343° |
| 2026-05-05 08:16 | 49.72764 | 19.43089 | 35945 ft | 446 kts | 346° |
| 2026-05-05 08:17 | 49.77801 | 19.41391 | 35941 ft | 446 kts | 344° |
| 2026-05-05 08:17 | 49.83863 | 19.39352 | 35943 ft | 446 kts | 345° |
| 2026-05-05 08:18 | 49.89935 | 19.37316 | 35943 ft | 446 kts | 344° |
| 2026-05-05 08:18 | 49.96008 | 19.35263 | 35939 ft | 447 kts | 345° |
| 2026-05-05 08:19 | 50.02090 | 19.33205 | 35942 ft | 447 kts | 345° |
| 2026-05-05 08:19 | 50.08173 | 19.31142 | 35932 ft | 447 kts | 345° |
| 2026-05-05 08:20 | 50.14257 | 19.29064 | 35934 ft | 447 kts | 345° |
| 2026-05-05 08:20 | 50.20342 | 19.26998 | 35937 ft | 447 kts | 345° |
| 2026-05-05 08:21 | 50.26427 | 19.24918 | 35929 ft | 447 kts | 345° |
| 2026-05-05 08:21 | 50.32474 | 19.22837 | 35943 ft | 448 kts | 344° |
| 2026-05-05 08:22 | 50.38425 | 19.20795 | 35936 ft | 448 kts | 344° |
| 2026-05-05 08:22 | 50.44517 | 19.18702 | 35933 ft | 448 kts | 344° |
| 2026-05-05 08:23 | 50.50610 | 19.16593 | 35933 ft | 449 kts | 344° |
| 2026-05-05 08:23 | 50.56711 | 19.14479 | 35929 ft | 449 kts | 344° |
| 2026-05-05 08:24 | 50.62812 | 19.12361 | 35908 ft | 449 kts | 344° |
| 2026-05-05 08:24 | 50.68879 | 19.10247 | 35907 ft | 449 kts | 344° |
| 2026-05-05 08:25 | 50.74986 | 19.08122 | 35908 ft | 449 kts | 344° |
| 2026-05-05 08:25 | 50.81088 | 19.05991 | 35917 ft | 449 kts | 344° |
| 2026-05-05 08:26 | 50.87195 | 19.03842 | 35909 ft | 450 kts | 344° |
| 2026-05-05 08:26 | 50.93317 | 19.01686 | 35903 ft | 450 kts | 344° |
| 2026-05-05 08:27 | 50.99431 | 18.99524 | 35911 ft | 450 kts | 344° |
| 2026-05-05 08:27 | 51.05551 | 18.97360 | 35908 ft | 451 kts | 344° |
| 2026-05-05 08:28 | 51.11632 | 18.95204 | 35904 ft | 451 kts | 344° |
| 2026-05-05 08:28 | 51.17762 | 18.93011 | 35903 ft | 451 kts | 344° |
| 2026-05-05 08:29 | 51.23883 | 18.90831 | 35913 ft | 451 kts | 343° |
| 2026-05-05 08:30 | 51.33084 | 18.87532 | 35909 ft | 451 kts | 343° |
| 2026-05-05 08:30 | 51.39222 | 18.85338 | 35909 ft | 451 kts | 343° |
| 2026-05-05 08:31 | 51.45335 | 18.83131 | 35908 ft | 452 kts | 343° |
| 2026-05-05 08:31 | 51.51466 | 18.80911 | 35919 ft | 452 kts | 343° |
| 2026-05-05 08:32 | 51.57600 | 18.78698 | 35915 ft | 452 kts | 343° |
| 2026-05-05 08:32 | 51.63731 | 18.76467 | 35912 ft | 451 kts | 343° |
| 2026-05-05 08:33 | 51.69861 | 18.74229 | 35912 ft | 451 kts | 343° |
| 2026-05-05 08:33 | 51.75986 | 18.72001 | 35934 ft | 451 kts | 343° |
| 2026-05-05 08:34 | 51.82106 | 18.69765 | 35924 ft | 451 kts | 343° |
| 2026-05-05 08:34 | 51.88219 | 18.67520 | 35920 ft | 450 kts | 343° |
| 2026-05-05 08:35 | 51.94331 | 18.65268 | 35918 ft | 450 kts | 343° |
| 2026-05-05 08:35 | 52.00429 | 18.63003 | 35915 ft | 450 kts | 343° |
| 2026-05-05 08:36 | 52.06495 | 18.60742 | 35910 ft | 450 kts | 343° |
| 2026-05-05 08:36 | 52.12608 | 18.58469 | 35905 ft | 450 kts | 343° |
| 2026-05-05 08:37 | 52.18710 | 18.56211 | 35915 ft | 450 kts | 343° |
| 2026-05-05 08:37 | 52.24820 | 18.53931 | 35915 ft | 450 kts | 343° |
| 2026-05-05 08:38 | 52.30938 | 18.51643 | 35927 ft | 451 kts | 343° |
| 2026-05-05 08:38 | 52.37056 | 18.49353 | 35915 ft | 451 kts | 343° |
| 2026-05-05 08:39 | 52.43148 | 18.47057 | 35921 ft | 452 kts | 343° |
| 2026-05-05 08:39 | 52.49271 | 18.44746 | 35915 ft | 452 kts | 343° |
| 2026-05-05 08:40 | 52.55404 | 18.42435 | 35939 ft | 452 kts | 342° |
| 2026-05-05 08:40 | 52.61531 | 18.40101 | 35931 ft | 452 kts | 342° |
| 2026-05-05 08:41 | 52.67652 | 18.37756 | 35931 ft | 452 kts | 342° |
| 2026-05-05 08:41 | 52.73777 | 18.35410 | 35945 ft | 452 kts | 342° |
| 2026-05-05 08:42 | 52.79907 | 18.33061 | 35937 ft | 452 kts | 342° |
| 2026-05-05 08:42 | 52.86030 | 18.30714 | 35956 ft | 452 kts | 342° |
| 2026-05-05 08:43 | 52.92163 | 18.28348 | 35940 ft | 452 kts | 342° |
| 2026-05-05 08:43 | 52.98296 | 18.25977 | 35940 ft | 453 kts | 342° |
| 2026-05-05 08:44 | 53.04431 | 18.23593 | 35940 ft | 453 kts | 342° |
| 2026-05-05 08:44 | 53.10568 | 18.21213 | 35948 ft | 453 kts | 342° |
| 2026-05-05 08:45 | 53.16712 | 18.18824 | 35941 ft | 453 kts | 342° |
| 2026-05-05 08:45 | 53.22822 | 18.16438 | 35957 ft | 453 kts | 342° |
| 2026-05-05 08:46 | 53.28968 | 18.14028 | 35950 ft | 454 kts | 342° |
| 2026-05-05 08:46 | 53.35113 | 18.11600 | 35943 ft | 454 kts | 341° |
| 2026-05-05 08:47 | 53.41267 | 18.09169 | 35957 ft | 454 kts | 341° |
| 2026-05-05 08:47 | 53.47419 | 18.06737 | 35953 ft | 454 kts | 341° |
| 2026-05-05 08:48 | 53.53570 | 18.04301 | 35951 ft | 454 kts | 341° |
| 2026-05-05 08:48 | 53.59726 | 18.01849 | 35953 ft | 454 kts | 341° |
| 2026-05-05 08:49 | 53.65858 | 17.99396 | 35975 ft | 454 kts | 341° |
| 2026-05-05 08:49 | 53.72011 | 17.96931 | 35982 ft | 454 kts | 341° |
| 2026-05-05 08:50 | 53.78159 | 17.94467 | 35976 ft | 454 kts | 341° |
| 2026-05-05 08:50 | 53.84305 | 17.91990 | 35960 ft | 454 kts | 341° |
| 2026-05-05 08:51 | 53.90452 | 17.89494 | 35956 ft | 454 kts | 341° |
| 2026-05-05 08:51 | 53.96594 | 17.87003 | 35970 ft | 454 kts | 341° |
| 2026-05-05 08:52 | 54.02748 | 17.84515 | 35960 ft | 454 kts | 341° |
| 2026-05-05 08:52 | 54.08853 | 17.82033 | 35958 ft | 454 kts | 341° |
| 2026-05-05 08:53 | 54.14994 | 17.79511 | 35957 ft | 454 kts | 341° |
| 2026-05-05 08:53 | 54.21134 | 17.76982 | 35983 ft | 454 kts | 340° |
| 2026-05-05 08:54 | 54.27271 | 17.74448 | 35949 ft | 453 kts | 340° |
| 2026-05-05 08:54 | 54.33406 | 17.71921 | 35956 ft | 454 kts | 341° |
| 2026-05-05 08:55 | 54.39562 | 17.69380 | 35961 ft | 454 kts | 340° |
| 2026-05-05 08:55 | 54.45676 | 17.66836 | 35949 ft | 454 kts | 340° |
| 2026-05-05 08:56 | 54.51825 | 17.64270 | 35970 ft | 455 kts | 340° |
| 2026-05-05 08:56 | 54.57977 | 17.61700 | 35957 ft | 456 kts | 340° |
| 2026-05-05 08:57 | 54.64147 | 17.59124 | 35959 ft | 456 kts | 340° |
| 2026-05-05 08:57 | 54.70317 | 17.56529 | 35960 ft | 457 kts | 340° |
| 2026-05-05 08:58 | 54.76488 | 17.53912 | 35984 ft | 457 kts | 340° |
| 2026-05-05 08:58 | 54.82464 | 17.51382 | 35977 ft | 457 kts | 340° |
| 2026-05-05 08:59 | 54.88627 | 17.48768 | 35974 ft | 457 kts | 340° |
| 2026-05-05 08:59 | 54.94791 | 17.46143 | 35975 ft | 457 kts | 340° |
| 2026-05-05 09:00 | 55.00938 | 17.43513 | 35974 ft | 457 kts | 340° |
| 2026-05-05 09:00 | 55.07150 | 17.40851 | 36002 ft | 457 kts | 340° |
| 2026-05-05 09:01 | 55.13290 | 17.38217 | 35990 ft | 456 kts | 340° |
| 2026-05-05 09:01 | 55.19452 | 17.35553 | 35983 ft | 456 kts | 340° |
| 2026-05-05 09:02 | 55.25613 | 17.32886 | 36000 ft | 456 kts | 340° |
| 2026-05-05 09:02 | 55.31766 | 17.30218 | 35984 ft | 455 kts | 340° |
| 2026-05-05 09:03 | 55.37876 | 17.27562 | 35965 ft | 452 kts | 340° |
| 2026-05-05 09:03 | 55.43967 | 17.24915 | 35954 ft | 451 kts | 340° |
| 2026-05-05 09:04 | 55.50061 | 17.22236 | 35960 ft | 451 kts | 340° |
| 2026-05-05 09:04 | 55.56148 | 17.19551 | 35959 ft | 451 kts | 340° |
| 2026-05-05 09:05 | 55.62257 | 17.16946 | 35955 ft | 455 kts | 344° |
| 2026-05-05 09:05 | 55.68667 | 17.16585 | 35963 ft | 466 kts | 358° |
| 2026-05-05 09:06 | 55.75107 | 17.17222 | 35953 ft | 467 kts | 357° |
| 2026-05-05 09:06 | 55.81602 | 17.17834 | 35952 ft | 467 kts | 357° |
| 2026-05-05 09:07 | 55.88099 | 17.18448 | 35947 ft | 468 kts | 357° |
| 2026-05-05 09:07 | 55.93549 | 17.18967 | 35982 ft | 468 kts | 357° |
| 2026-05-05 09:08 | 56.00062 | 17.19598 | 35969 ft | 469 kts | 357° |
| 2026-05-05 09:08 | 56.06553 | 17.20224 | 35957 ft | 469 kts | 357° |
| 2026-05-05 09:09 | 56.13072 | 17.20852 | 35944 ft | 469 kts | 357° |
| 2026-05-05 09:09 | 56.19589 | 17.21478 | 35964 ft | 469 kts | 357° |
| 2026-05-05 09:10 | 56.26100 | 17.22099 | 35955 ft | 468 kts | 357° |
| 2026-05-05 09:10 | 56.32618 | 17.22743 | 35954 ft | 468 kts | 357° |
| 2026-05-05 09:11 | 56.39078 | 17.23381 | 35950 ft | 467 kts | 357° |
| 2026-05-05 09:11 | 56.45573 | 17.24019 | 35966 ft | 467 kts | 357° |
| 2026-05-05 09:12 | 56.52059 | 17.24670 | 35948 ft | 467 kts | 357° |
| 2026-05-05 09:12 | 56.58541 | 17.25320 | 35941 ft | 466 kts | 357° |
| 2026-05-05 09:13 | 56.65022 | 17.25960 | 35937 ft | 466 kts | 357° |
| 2026-05-05 09:13 | 56.71510 | 17.26603 | 35936 ft | 466 kts | 357° |
| 2026-05-05 09:14 | 56.77933 | 17.27249 | 35932 ft | 464 kts | 358° |
| 2026-05-05 09:14 | 56.84378 | 17.27898 | 35910 ft | 464 kts | 357° |
| 2026-05-05 09:15 | 56.90831 | 17.28540 | 35917 ft | 464 kts | 357° |
| 2026-05-05 09:15 | 56.97285 | 17.29187 | 35916 ft | 464 kts | 358° |
| 2026-05-05 09:16 | 57.03739 | 17.29841 | 35937 ft | 464 kts | 358° |
| 2026-05-05 09:16 | 57.10192 | 17.30503 | 35931 ft | 464 kts | 358° |
| 2026-05-05 09:17 | 57.16636 | 17.31162 | 35923 ft | 464 kts | 358° |
| 2026-05-05 09:17 | 57.23077 | 17.31818 | 35914 ft | 464 kts | 357° |
| 2026-05-05 09:18 | 57.29536 | 17.32482 | 35939 ft | 464 kts | 357° |
| 2026-05-05 09:18 | 57.35977 | 17.33146 | 35923 ft | 464 kts | 357° |
| 2026-05-05 09:19 | 57.42423 | 17.33815 | 35911 ft | 464 kts | 357° |
| 2026-05-05 09:19 | 57.48875 | 17.34499 | 35906 ft | 465 kts | 359° |
| 2026-05-05 09:20 | 57.55253 | 17.36645 | 35902 ft | 471 kts | 6° |
| 2026-05-05 09:20 | 57.61674 | 17.39202 | 35896 ft | 471 kts | 6° |
| 2026-05-05 09:21 | 57.68089 | 17.41759 | 35898 ft | 471 kts | 6° |
| 2026-05-05 09:21 | 57.74505 | 17.44316 | 35893 ft | 471 kts | 6° |
| 2026-05-05 09:22 | 57.80926 | 17.46879 | 35897 ft | 472 kts | 6° |
| 2026-05-05 09:22 | 57.87350 | 17.49462 | 35900 ft | 473 kts | 6° |
| 2026-05-05 09:23 | 57.93805 | 17.52067 | 35883 ft | 475 kts | 6° |
| 2026-05-05 09:23 | 58.00268 | 17.54679 | 35880 ft | 475 kts | 6° |
| 2026-05-05 09:24 | 58.06740 | 17.57308 | 35877 ft | 476 kts | 6° |
| 2026-05-05 09:24 | 58.13215 | 17.59954 | 35899 ft | 477 kts | 6° |
| 2026-05-05 09:25 | 58.19678 | 17.62593 | 35881 ft | 477 kts | 6° |
| 2026-05-05 09:25 | 58.26173 | 17.65270 | 35877 ft | 478 kts | 6° |
| 2026-05-05 09:26 | 58.32668 | 17.67976 | 35872 ft | 478 kts | 6° |
| 2026-05-05 09:26 | 58.39171 | 17.70673 | 35880 ft | 479 kts | 6° |
| 2026-05-05 09:27 | 58.45681 | 17.73364 | 35515 ft | 480 kts | 5° |
| 2026-05-05 09:27 | 58.48981 | 17.74718 | 34583 ft | 489 kts | 5° |
| 2026-05-05 09:27 | 58.52307 | 17.76094 | 33945 ft | 489 kts | 5° |
| 2026-05-05 09:27 | 58.55640 | 17.77491 | 33244 ft | 490 kts | 5° |
| 2026-05-05 09:28 | 58.58967 | 17.78899 | 32628 ft | 488 kts | 5° |
| 2026-05-05 09:28 | 58.62272 | 17.80311 | 32081 ft | 484 kts | 5° |
| 2026-05-05 09:28 | 58.65548 | 17.81710 | 31627 ft | 481 kts | 4° |
| 2026-05-05 09:28 | 58.68805 | 17.83092 | 31091 ft | 478 kts | 4° |
| 2026-05-05 09:29 | 58.72054 | 17.84459 | 30229 ft | 482 kts | 4° |
| 2026-05-05 09:29 | 58.75340 | 17.85825 | 29425 ft | 484 kts | 4° |
| 2026-05-05 09:29 | 58.78625 | 17.87201 | 28751 ft | 481 kts | 4° |
| 2026-05-05 09:29 | 58.81876 | 17.88668 | 28123 ft | 482 kts | 9° |
| 2026-05-05 09:30 | 58.85064 | 17.90677 | 27517 ft | 480 kts | 11° |
| 2026-05-05 09:30 | 58.88230 | 17.92727 | 26934 ft | 477 kts | 11° |
| 2026-05-05 09:30 | 58.91323 | 17.94750 | 26365 ft | 473 kts | 11° |
| 2026-05-05 09:30 | 58.94453 | 17.96792 | 25362 ft | 479 kts | 11° |
| 2026-05-05 09:31 | 58.97650 | 17.98860 | 24178 ft | 490 kts | 11° |
| 2026-05-05 09:31 | 59.00900 | 18.00967 | 23275 ft | 492 kts | 11° |
| 2026-05-05 09:31 | 59.04136 | 18.03083 | 22453 ft | 489 kts | 12° |
| 2026-05-05 09:31 | 59.07346 | 18.05199 | 21726 ft | 484 kts | 12° |
| 2026-05-05 09:32 | 59.10516 | 18.07297 | 21028 ft | 479 kts | 12° |
| 2026-05-05 09:32 | 59.13656 | 18.09373 | 20350 ft | 474 kts | 11° |
| 2026-05-05 09:32 | 59.16764 | 18.11422 | 19939 ft | 471 kts | 11° |
| 2026-05-05 09:32 | 59.19873 | 18.13459 | 19826 ft | 470 kts | 11° |
| 2026-05-05 09:33 | 59.22980 | 18.15498 | 19831 ft | 472 kts | 11° |
| 2026-05-05 09:33 | 59.26099 | 18.17545 | 19832 ft | 473 kts | 11° |
| 2026-05-05 09:33 | 59.29215 | 18.19596 | 19832 ft | 473 kts | 11° |
| 2026-05-05 09:33 | 59.32334 | 18.21659 | 19833 ft | 473 kts | 11° |
| 2026-05-05 09:34 | 59.35457 | 18.23730 | 19830 ft | 473 kts | 11° |
| 2026-05-05 09:34 | 59.38572 | 18.25809 | 19829 ft | 473 kts | 11° |
| 2026-05-05 09:34 | 59.41688 | 18.27901 | 19827 ft | 473 kts | 11° |
| 2026-05-05 09:34 | 59.44798 | 18.29991 | 19826 ft | 473 kts | 11° |
| 2026-05-05 09:35 | 59.47912 | 18.32084 | 19855 ft | 474 kts | 11° |
| 2026-05-05 09:35 | 59.54114 | 18.36252 | 19803 ft | 474 kts | 11° |
| 2026-05-05 09:35 | 59.57203 | 18.38336 | 19039 ft | 460 kts | 11° |
| 2026-05-05 09:36 | 59.60214 | 18.40260 | 17544 ft | 447 kts | 6° |
| 2026-05-05 09:36 | 59.63210 | 18.41633 | 15992 ft | 436 kts | 2° |
| 2026-05-05 09:36 | 59.66143 | 18.42364 | 14650 ft | 410 kts | 348° |
| 2026-05-05 09:36 | 59.68810 | 18.41304 | 13369 ft | 379 kts | 332° |
| 2026-05-05 09:37 | 59.71251 | 18.39510 | 11860 ft | 370 kts | 330° |
| 2026-05-05 09:37 | 59.73613 | 18.37595 | 10439 ft | 362 kts | 330° |
| 2026-05-05 09:37 | 59.75880 | 18.35638 | 9066 ft | 356 kts | 333° |
| 2026-05-05 09:37 | 59.78285 | 18.34461 | 8284 ft | 361 kts | 354° |
| 2026-05-05 09:38 | 59.80785 | 18.35133 | 7803 ft | 368 kts | 15° |
| 2026-05-05 09:38 | 59.83028 | 18.37434 | 7315 ft | 354 kts | 34° |
| 2026-05-05 09:38 | 59.84690 | 18.40790 | 6860 ft | 331 kts | 53° |
| 2026-05-05 09:38 | 59.85722 | 18.44723 | 6392 ft | 312 kts | 70° |
| 2026-05-05 09:39 | 59.86153 | 18.48825 | 5934 ft | 296 kts | 85° |
| 2026-05-05 09:39 | 59.86037 | 18.52807 | 5453 ft | 283 kts | 101° |
| 2026-05-05 09:39 | 59.85429 | 18.56538 | 4987 ft | 285 kts | 116° |
| 2026-05-05 09:39 | 59.84414 | 18.59736 | 4533 ft | 286 kts | 131° |
| 2026-05-05 09:40 | 59.82967 | 18.62457 | 4053 ft | 287 kts | 147° |
| 2026-05-05 09:40 | 59.81225 | 18.64359 | 3571 ft | 286 kts | 162° |
| 2026-05-05 09:40 | 59.79308 | 18.65315 | 3109 ft | 284 kts | 177° |
| 2026-05-05 09:40 | 59.77414 | 18.65285 | 2972 ft | 268 kts | 192° |
| 2026-05-05 09:41 | 59.75672 | 18.64442 | 2991 ft | 250 kts | 204° |
| 2026-05-05 09:41 | 59.74153 | 18.62899 | 2984 ft | 242 kts | 224° |
| 2026-05-05 09:41 | 59.73301 | 18.60199 | 2997 ft | 232 kts | 262° |
| 2026-05-05 09:41 | 59.73446 | 18.57046 | 3010 ft | 233 kts | 285° |
| 2026-05-05 09:42 | 59.73578 | 18.53868 | 2995 ft | 234 kts | 258° |
| 2026-05-05 09:42 | 59.73032 | 18.50827 | 2982 ft | 231 kts | 254° |
| 2026-05-05 09:42 | 59.72604 | 18.47826 | 2990 ft | 224 kts | 259° |
| 2026-05-05 09:42 | 59.72244 | 18.44884 | 2993 ft | 216 kts | 259° |
| 2026-05-05 09:43 | 59.71895 | 18.42014 | 2995 ft | 213 kts | 258° |
| 2026-05-05 09:43 | 59.71545 | 18.39161 | 2997 ft | 213 kts | 259° |
| 2026-05-05 09:43 | 59.71202 | 18.36388 | 2992 ft | 199 kts | 259° |
| 2026-05-05 09:43 | 59.70884 | 18.33814 | 3021 ft | 195 kts | 258° |
| 2026-05-05 09:44 | 59.70558 | 18.31176 | 3004 ft | 195 kts | 258° |
| 2026-05-05 09:44 | 59.70244 | 18.28655 | 3013 ft | 178 kts | 259° |
| 2026-05-05 09:44 | 59.69964 | 18.26412 | 2983 ft | 159 kts | 259° |
| 2026-05-05 09:44 | 59.69710 | 18.24364 | 2863 ft | 149 kts | 259° |
| 2026-05-05 09:45 | 59.69462 | 18.22370 | 2688 ft | 148 kts | 258° |
| 2026-05-05 09:45 | 59.69220 | 18.20429 | 2507 ft | 147 kts | 259° |
| 2026-05-05 09:45 | 59.68980 | 18.18505 | 2322 ft | 143 kts | 259° |
| 2026-05-05 09:45 | 59.68743 | 18.16609 | 2123 ft | 141 kts | 259° |
| 2026-05-05 09:46 | 59.68508 | 18.14730 | 1930 ft | 140 kts | 259° |
| 2026-05-05 09:46 | 59.68273 | 18.12852 | 1733 ft | 141 kts | 259° |
| 2026-05-05 09:46 | 59.68037 | 18.10983 | 1550 ft | 139 kts | 260° |
| 2026-05-05 09:46 | 59.67801 | 18.09112 | 1359 ft | 141 kts | 259° |
| 2026-05-05 09:47 | 59.67567 | 18.07236 | 1168 ft | 140 kts | 259° |
| 2026-05-05 09:47 | 59.67333 | 18.05385 | 1001 ft | 138 kts | 260° |
| 2026-05-05 09:47 | 59.67098 | 18.03509 | 783 ft | 142 kts | 256° |
| 2026-05-05 09:47 | 59.66863 | 18.01647 | 587 ft | 141 kts | 257° |
| 2026-05-05 09:48 | 59.66625 | 17.99765 | 403 ft | 140 kts | 257° |
| 2026-05-05 09:48 | 59.66371 | 17.97804 | 477 ft | 163 kts | 257° |
| 2026-05-05 09:48 | 59.66087 | 17.95524 | 1341 ft | 177 kts | 258° |
| 2026-05-05 09:48 | 59.65751 | 17.93047 | 1585 ft | 197 kts | 258° |
| 2026-05-05 09:49 | 59.65438 | 17.90336 | 1486 ft | 206 kts | 262° |
| 2026-05-05 09:49 | 59.65404 | 17.88478 | 1471 ft | 204 kts | 282° |